Sunday, November 19, 2017, 2:05 PM GMT
Back to Local

CXSH, Shawinigan CS , Que.

Location: , , Canada Lat: 46.583
Local Time: 2:05 PM GMT (14:05 GMT) Lon: -72.583
Time Zone: GMT Elev: 360 ft

Show me the last for .
Show Coded

Time T Td Feel RH Dir Speed Gust Alt SLP Vis Weather Sky Remarks
2017-11-19 13:00 33 32 - 95 30° 2 - - 29.08 0 1-hr Precip Total: 0.08"
2017-11-19 12:00 31 32 - 102 50° 2 - - 29.09 0 None
2017-11-19 11:00 32 31 28 99 50° 3 - - 29.12 0 None
2017-11-19 10:00 32 33 29 104 50° 3 - - 29.14 0 None
2017-11-19 09:00 32 30 27 95 60° 5 - - 29.18 0 None
2017-11-19 08:00 31 29 23 93 70° 8 - - 29.22 0 None
2017-11-19 07:00 30 28 18 92 80° 9 17 - 29.26 0 Pressure falling rapidly
2017-11-19 06:00 30 26 23 84 70° 8 - - 29.31 0 None
2017-11-19 05:00 31 26 25 80 80° 6 - - 29.36 0 None
2017-11-19 04:00 31 24 24 74 90° 8 - - 29.40 0 None
2017-11-19 03:00 31 23 24 72 60° 7 - - 29.45 0 None
2017-11-19 02:00 30 23 23 75 60° 7 - - 29.50 0 None
2017-11-19 01:00 29 22 23 72 70° 6 - - 29.53 0 None
2017-11-19 00:00 29 19 22 68 60° 6 - - 29.57 0 None
2017-11-18 23:00 28 19 21 69 60° 6 - - 29.58 0 None
2017-11-18 22:00 27 17 23 66 50° 3 - - 29.62 0 None
2017-11-18 21:00 26 15 18 64 60° 7 - - 29.62 0 None
2017-11-18 20:00 28 15 20 59 70° 7 - - 29.64 0 None
2017-11-18 19:00 25 16 18 69 40° 6 - - 29.68 0 None
2017-11-18 18:00 25 16 16 69 40° 8 - - 29.72 0 None
2017-11-18 17:00 24 16 17 70 50° 6 - - 29.77 0 None
2017-11-18 16:00 23 16 18 75 40° 3 - - 29.81 0 None
2017-11-18 15:00 22 15 15 75 90° 5 - - 29.84 0 None

Support USWX by starting your Amazon purchase here.